Time;durP1;ratioP1;P1;durP2;ratioP2;P2;SDS_P1;SDS_P2;PMS_P1;PMS_P2;Temp;Humidity;BMP_temperature;BMP_pressure;BME280_temperature;BME280_humidity;BME280_pressure;Samples;Min_cycle;Max_cycle;Signal;HPM_P1;HPM_P2
2020/12/11 00:01:08;;;;;;;95.03;32.28;;;;;;;2.29;100.00;100304.72;6160915;28;20086;-71
2020/12/11 00:04:09;;;;;;;94.68;30.80;;;;;;;2.28;100.00;100291.81;6163740;28;20047;-71
2020/12/11 00:07:10;;;;;;;93.60;31.80;;;;;;;2.28;100.00;100289.22;6160494;28;20058;-71
2020/12/11 00:10:12;;;;;;;92.82;31.85;;;;;;;2.29;100.00;100278.78;6158377;28;20059;-71
2020/12/11 00:13:13;;;;;;;100.65;32.78;;;;;;;2.29;100.00;100275.34;6170741;28;20038;-71
2020/12/11 00:16:14;;;;;;;102.55;31.85;;;;;;;2.30;100.00;100274.44;6167096;28;20538;-71
2020/12/11 00:19:15;;;;;;;98.30;32.20;;;;;;;2.28;100.00;100271.91;6174342;28;20413;-71
2020/12/11 00:22:17;;;;;;;92.93;31.05;;;;;;;2.25;100.00;100268.53;6166383;28;20102;-71
2020/12/11 00:25:17;;;;;;;88.78;30.88;;;;;;;2.27;100.00;100258.97;6150791;28;20054;-72
2020/12/11 00:28:18;;;;;;;109.60;33.47;;;;;;;2.25;100.00;100263.34;6150371;28;20051;-71
2020/12/11 00:31:23;;;;;;;97.82;30.48;;;;;;;2.24;100.00;100252.13;6150268;28;20070;-71
2020/12/11 00:34:24;;;;;;;99.28;32.13;;;;;;;2.26;100.00;100252.94;6150298;28;20519;-71
2020/12/11 00:37:25;;;;;;;89.53;29.20;;;;;;;2.36;100.00;100252.69;6149954;28;20055;-72
2020/12/11 00:40:26;;;;;;;92.28;30.73;;;;;;;2.30;100.00;100238.16;6150006;28;20058;-71
2020/12/11 00:43:27;;;;;;;91.28;29.65;;;;;;;2.26;100.00;100226.16;6150102;28;20416;-71
2020/12/11 00:46:28;;;;;;;87.35;28.70;;;;;;;2.22;100.00;100220.22;6150056;28;20051;-71
2020/12/11 00:49:29;;;;;;;85.20;29.98;;;;;;;2.28;100.00;100219.22;6148863;28;20055;-72
2020/12/11 00:52:31;;;;;;;94.82;29.48;;;;;;;2.17;100.00;100214.31;6150251;28;20055;-71
2020/12/11 00:55:31;;;;;;;85.45;28.15;;;;;;;2.20;100.00;100203.00;6149949;28;20055;-71
2020/12/11 00:58:32;;;;;;;87.22;29.15;;;;;;;2.12;100.00;100210.16;6150044;28;20078;-66
2020/12/11 01:01:36;;;;;;;98.80;30.65;;;;;;;2.06;100.00;100212.91;6149489;28;20185;-66
2020/12/11 01:04:37;;;;;;;93.00;31.05;;;;;;;2.07;100.00;100201.66;6149937;28;20051;-66
2020/12/11 01:07:38;;;;;;;82.72;27.30;;;;;;;2.03;100.00;100193.09;6149210;28;20054;-67
2020/12/11 01:10:39;;;;;;;83.90;29.73;;;;;;;1.94;100.00;100195.94;6149706;28;20051;-67
2020/12/11 01:13:40;;;;;;;85.53;27.90;;;;;;;1.87;100.00;100191.84;6149601;28;20062;-67
2020/12/11 01:16:41;;;;;;;80.53;28.88;;;;;;;1.85;100.00;100191.84;6149372;28;20047;-66
2020/12/11 01:19:42;;;;;;;86.00;29.67;;;;;;;1.82;100.00;100189.38;6149190;28;20106;-66
2020/12/11 01:22:44;;;;;;;84.20;28.50;;;;;;;1.78;100.00;100183.41;6149298;29;20043;-67
2020/12/11 01:25:45;;;;;;;86.38;28.52;;;;;;;1.75;100.00;100180.03;6149738;28;20051;-67
2020/12/11 01:28:46;;;;;;;91.60;29.65;;;;;;;1.81;100.00;100179.88;6148921;28;20051;-67
2020/12/11 01:31:47;;;;;;;86.68;29.13;;;;;;;1.81;100.00;100171.25;6149666;28;20051;-67
2020/12/11 01:34:48;;;;;;;83.72;28.88;;;;;;;1.80;100.00;100169.56;6149358;28;20051;-66
2020/12/11 01:37:49;;;;;;;86.85;29.55;;;;;;;1.78;100.00;100164.44;6148921;28;20062;-66
2020/12/11 01:40:51;;;;;;;83.03;29.05;;;;;;;1.80;100.00;100160.03;6148955;28;20432;-67
2020/12/11 01:43:52;;;;;;;89.35;29.42;;;;;;;1.83;100.00;100157.38;6149134;28;20054;-67
2020/12/11 01:46:56;;;;;;;79.50;27.70;;;;;;;1.87;100.00;100150.38;6148906;28;20051;-67
2020/12/11 01:49:57;;;;;;;78.63;27.60;;;;;;;1.85;100.00;100149.56;6148773;28;20048;-67
2020/12/11 01:52:59;;;;;;;88.45;29.98;;;;;;;1.81;100.00;100145.34;6149355;28;20401;-67
2020/12/11 01:56:02;;;;;;;87.15;30.98;;;;;;;1.83;100.00;100141.00;6148839;28;20413;-67
2020/12/11 01:59:04;;;;;;;82.70;29.25;;;;;;;1.77;100.00;100136.81;6149059;28;20074;-67
2020/12/11 02:02:06;;;;;;;88.03;28.85;;;;;;;1.80;100.00;100141.06;6152630;28;20066;-67
2020/12/11 02:05:08;;;;;;;92.32;30.02;;;;;;;1.82;100.00;100123.72;6153750;28;20051;-66
2020/12/11 02:08:12;;;;;;;79.85;29.45;;;;;;;1.75;100.00;100126.50;6153493;28;20058;-67
2020/12/11 02:11:17;;;;;;;87.03;29.30;;;;;;;1.72;100.00;100120.53;6153624;28;20055;-66
2020/12/11 02:14:18;;;;;;;86.45;29.45;;;;;;;1.70;100.00;100127.50;6153355;28;20416;-67
2020/12/11 02:17:19;;;;;;;85.88;29.00;;;;;;;1.75;100.00;100123.91;6153301;28;20059;-66
2020/12/11 02:20:20;;;;;;;81.82;28.77;;;;;;;1.82;100.00;100127.19;6153171;28;20062;-66
2020/12/11 02:23:21;;;;;;;81.93;28.45;;;;;;;1.77;100.00;100127.31;6153096;28;20059;-67
2020/12/11 02:26:24;;;;;;;81.30;28.98;;;;;;;1.85;100.00;100119.31;6153230;28;20051;-67
2020/12/11 02:29:26;;;;;;;89.35;29.65;;;;;;;1.80;100.00;100102.22;6152903;28;20047;-67
2020/12/11 02:32:27;;;;;;;85.13;30.10;;;;;;;1.78;100.00;100105.69;6153335;28;20058;-67
2020/12/11 02:35:27;;;;;;;76.95;27.38;;;;;;;1.82;100.00;100101.28;6152811;28;20055;-67
2020/12/11 02:38:29;;;;;;;76.95;28.48;;;;;;;1.81;100.00;100088.34;6152970;28;20517;-67
2020/12/11 02:41:30;;;;;;;82.78;28.80;;;;;;;1.81;100.00;100089.19;6152664;28;20066;-67
2020/12/11 02:44:31;;;;;;;82.18;29.35;;;;;;;1.84;100.00;100085.69;6153007;28;20047;-67
2020/12/11 02:47:33;;;;;;;81.95;28.05;;;;;;;1.87;100.00;100081.28;6152564;28;20051;-67
2020/12/11 02:50:33;;;;;;;79.15;26.83;;;;;;;1.85;100.00;100087.38;6152268;28;20130;-66
2020/12/11 02:53:35;;;;;;;76.18;28.15;;;;;;;1.86;100.00;100066.59;6152921;28;20082;-67
2020/12/11 02:56:36;;;;;;;78.10;28.20;;;;;;;1.87;100.00;100065.72;6152275;28;20416;-67
2020/12/11 02:59:37;;;;;;;79.85;27.25;;;;;;;1.90;100.00;100065.63;6152495;28;20047;-67
2020/12/11 03:02:38;;;;;;;71.07;25.73;;;;;;;1.96;100.00;100060.28;6152382;28;20082;-66
2020/12/11 03:05:39;;;;;;;70.07;27.08;;;;;;;1.94;100.00;100063.81;6152503;28;20051;-66
2020/12/11 03:08:40;;;;;;;78.05;28.23;;;;;;;1.95;100.00;100057.72;6151705;28;20054;-67
2020/12/11 03:11:41;;;;;;;77.85;27.10;;;;;;;1.99;100.00;100043.78;6151607;28;20058;-67
2020/12/11 03:14:42;;;;;;;72.93;25.77;;;;;;;1.93;100.00;100029.28;6152137;28;20500;-67
2020/12/11 03:17:43;;;;;;;65.60;24.55;;;;;;;1.94;100.00;100032.72;6152190;28;20060;-67
2020/12/11 03:20:44;;;;;;;72.75;26.00;;;;;;;1.94;100.00;100032.72;6151838;28;20179;-67
2020/12/11 03:23:46;;;;;;;65.13;25.40;;;;;;;1.97;100.00;100033.47;6151874;28;20048;-67
2020/12/11 03:26:47;;;;;;;72.40;25.73;;;;;;;1.90;99.74;100034.53;6149772;28;20051;-67
2020/12/11 03:29:48;;;;;;;70.50;25.98;;;;;;;1.86;100.00;100019.97;6151175;28;20509;-67
2020/12/11 03:32:49;;;;;;;64.55;24.70;;;;;;;1.89;100.00;100017.31;6151849;28;20047;-66
2020/12/11 03:35:50;;;;;;;70.68;25.45;;;;;;;1.80;100.00;100020.16;6151445;28;20047;-66
2020/12/11 03:38:52;;;;;;;70.88;25.38;;;;;;;1.89;100.00;100016.47;6151449;28;20534;-67
2020/12/11 03:41:53;;;;;;;67.40;23.85;;;;;;;1.85;100.00;100014.84;6151703;28;20058;-67
2020/12/11 03:44:54;;;;;;;66.82;23.42;;;;;;;1.86;100.00;100012.19;6151393;28;20047;-66
2020/12/11 03:47:55;;;;;;;63.45;24.10;;;;;;;1.93;100.00;100007.69;6151359;28;20190;-67
2020/12/11 03:50:56;;;;;;;61.80;24.50;;;;;;;1.92;100.00;100004.25;6151117;28;20098;-67
2020/12/11 03:53:57;;;;;;;61.30;24.00;;;;;;;2.00;100.00;99999.72;6151533;28;20520;-67
2020/12/11 03:56:58;;;;;;;55.72;20.98;;;;;;;1.97;100.00;100002.38;6150920;28;20052;-66
2020/12/11 03:59:59;;;;;;;67.85;24.77;;;;;;;1.97;100.00;99997.19;6151083;28;20062;-67
2020/12/11 04:03:00;;;;;;;57.03;21.40;;;;;;;1.95;100.00;99993.81;6150662;28;20126;-67
2020/12/11 04:06:01;;;;;;;56.53;21.13;;;;;;;1.94;99.88;99997.28;6150800;28;20059;-66
2020/12/11 04:09:03;;;;;;;53.67;21.15;;;;;;;1.98;99.72;99985.09;6150353;28;20058;-66
2020/12/11 04:12:04;;;;;;;46.22;20.60;;;;;;;1.96;99.16;99992.06;6151083;28;20064;-66
2020/12/11 04:15:05;;;;;;;47.80;19.33;;;;;;;1.97;99.00;99996.34;6150886;28;20132;-66
2020/12/11 04:18:06;;;;;;;42.35;17.83;;;;;;;1.97;99.08;99998.94;6150544;28;20055;-67
2020/12/11 04:21:10;;;;;;;46.10;19.65;;;;;;;1.99;97.67;99982.44;6150298;28;20073;-66
2020/12/11 04:24:12;;;;;;;37.70;17.95;;;;;;;2.04;96.56;99990.06;6150372;28;20058;-67
2020/12/11 04:27:13;;;;;;;37.63;18.15;;;;;;;1.95;96.67;99988.63;6155865;28;20051;-67
2020/12/11 04:30:14;;;;;;;37.05;17.27;;;;;;;1.92;96.41;99975.78;6163148;28;20057;-67
2020/12/11 04:33:14;;;;;;;36.42;17.67;;;;;;;1.98;95.38;99974.72;6154825;28;20062;-67
2020/12/11 04:36:17;;;;;;;33.95;16.35;;;;;;;1.98;95.55;99966.94;6150126;28;20055;-67
2020/12/11 04:39:19;;;;;;;36.92;17.17;;;;;;;1.91;95.17;99968.91;6150071;28;20500;-67
2020/12/11 04:42:21;;;;;;;36.25;17.92;;;;;;;1.89;95.58;99968.06;6150215;29;20066;-67
2020/12/11 04:45:23;;;;;;;37.03;18.13;;;;;;;1.86;95.14;99965.56;6155408;28;20060;-67
2020/12/11 04:48:24;;;;;;;34.85;17.48;;;;;;;1.90;95.52;99969.75;6126029;29;20056;-67
2020/12/11 04:51:29;;;;;;;37.50;18.00;;;;;;;1.93;94.39;99966.25;6126163;29;20134;-67
2020/12/11 04:54:36;;;;;;;38.35;16.90;;;;;;;1.91;94.19;99963.72;6126392;29;20052;-67
2020/12/11 04:57:43;;;;;;;36.58;17.33;;;;;;;1.84;94.52;99959.59;6125817;29;20417;-67
2020/12/11 05:00:45;;;;;;;32.95;16.58;;;;;;;2.01;93.62;99959.09;6135107;29;20106;-67
2020/12/11 05:03:46;;;;;;;36.90;18.20;;;;;;;1.94;93.54;99952.38;6149566;28;20051;-67
2020/12/11 05:06:46;;;;;;;33.00;16.27;;;;;;;1.91;92.81;99957.69;6149777;28;20133;-67
2020/12/11 05:09:57;;;;;;;37.25;17.73;;;;;;;1.89;92.72;99946.50;6149352;28;20055;-67
2020/12/11 05:13:16;;;;;;;36.17;17.30;;;;;;;1.88;93.18;99937.91;6149734;28;20416;-67
2020/12/11 05:16:16;;;;;;;40.88;18.42;;;;;;;1.78;93.37;99947.69;6149612;28;20051;-67
2020/12/11 05:19:17;;;;;;;35.80;17.25;;;;;;;1.76;93.87;99966.75;6149511;28;20492;-67
2020/12/11 05:22:19;;;;;;;37.60;18.63;;;;;;;1.80;93.50;99965.75;6149377;28;20051;-67
2020/12/11 05:25:23;;;;;;;34.97;17.98;;;;;;;1.83;93.65;99970.03;6149590;28;20134;-67
2020/12/11 05:28:24;;;;;;;36.83;16.80;;;;;;;1.87;93.31;99964.69;6148850;28;20405;-67
2020/12/11 05:31:25;;;;;;;32.92;17.42;;;;;;;1.88;91.84;99962.94;6149022;28;20059;-67
2020/12/11 05:34:26;;;;;;;35.40;17.52;;;;;;;1.94;93.07;99957.56;6149356;28;20051;-67
2020/12/11 05:37:27;;;;;;;36.28;17.88;;;;;;;1.81;93.07;99959.69;6154047;28;20070;-67
2020/12/11 05:40:31;;;;;;;37.17;17.38;;;;;;;1.90;93.37;99954.22;6153936;28;20508;-67
2020/12/11 05:43:32;;;;;;;38.47;17.02;;;;;;;1.83;93.28;99957.91;6154337;28;20055;-67
2020/12/11 05:46:33;;;;;;;34.53;16.88;;;;;;;1.89;93.16;99956.88;6153953;28;20051;-67
2020/12/11 05:49:34;;;;;;;38.38;17.55;;;;;;;1.94;92.84;99955.81;6153973;28;20456;-67
2020/12/11 05:52:35;;;;;;;39.72;18.23;;;;;;;1.84;92.33;99956.16;6154069;28;20054;-67
2020/12/11 05:55:37;;;;;;;44.63;20.25;;;;;;;1.78;92.88;99954.63;6154063;28;20608;-67
2020/12/11 05:58:38;;;;;;;43.35;18.98;;;;;;;1.75;93.21;99945.19;6153122;28;20047;-67
2020/12/11 06:01:40;;;;;;;37.65;17.80;;;;;;;1.74;93.53;99951.25;6153893;28;20492;-67
2020/12/11 06:04:42;;;;;;;34.78;16.85;;;;;;;1.75;93.52;99947.78;6153637;28;20412;-67
2020/12/11 06:07:44;;;;;;;37.03;17.80;;;;;;;1.72;93.58;99928.88;6153568;28;20058;-67
2020/12/11 06:10:50;;;;;;;35.10;16.98;;;;;;;1.78;92.54;99926.97;6153514;28;20202;-67
2020/12/11 06:14:00;;;;;;;36.28;17.73;;;;;;;1.71;92.39;99922.84;6153654;28;20094;-67
2020/12/11 06:17:02;;;;;;;35.20;17.83;;;;;;;1.79;92.11;99914.84;6153585;28;20496;-67
2020/12/11 06:20:06;;;;;;;38.45;17.50;;;;;;;1.68;92.44;99912.63;6153215;28;20058;-67
2020/12/11 06:23:21;;;;;;;32.75;16.10;;;;;;;1.61;92.69;99910.25;6153345;28;20058;-67
2020/12/11 06:26:23;;;;;;;38.22;17.58;;;;;;;1.66;92.16;99903.19;6152625;29;20423;-67
2020/12/11 06:29:29;;;;;;;38.35;18.05;;;;;;;1.57;92.45;99891.34;6153225;28;20139;-67
2020/12/11 06:32:33;;;;;;;38.58;18.25;;;;;;;1.51;92.75;99888.97;6153078;28;20058;-67
2020/12/11 06:35:34;;;;;;;34.30;17.40;;;;;;;1.51;93.69;99881.19;6152154;28;20062;-66
2020/12/11 06:38:43;;;;;;;41.38;18.23;;;;;;;1.54;93.52;99883.66;6152676;28;20059;-67
2020/12/11 06:41:45;;;;;;;37.75;18.25;;;;;;;1.51;93.21;99889.81;6153312;29;20056;-67
2020/12/11 06:44:45;;;;;;;59.97;29.13;;;;;;;1.67;92.54;99877.22;6152838;28;20044;-67
2020/12/11 06:47:48;;;;;;;37.83;18.85;;;;;;;1.50;92.97;99890.72;6152463;28;20063;-67
2020/12/11 06:51:04;;;;;;;41.00;16.88;;;;;;;1.49;91.69;99873.44;6151511;28;20500;-67
2020/12/11 06:54:05;;;;;;;39.22;17.65;;;;;;;1.45;92.68;99868.41;6152775;28;20152;-67
2020/12/11 06:57:07;;;;;;;39.88;18.88;;;;;;;1.39;93.25;99859.09;6151083;29;20063;-67
2020/12/11 07:00:29;;;;;;;34.17;16.60;;;;;;;1.38;93.69;99854.81;6151912;28;20058;-67
2020/12/11 07:03:31;;;;;;;37.30;17.83;;;;;;;1.37;93.92;99845.38;6152327;28;20118;-71
2020/12/11 07:06:32;;;;;;;37.90;19.20;;;;;;;1.35;93.72;99846.28;6171446;28;20422;-70
2020/12/11 07:09:38;;;;;;;36.60;17.35;;;;;;;1.41;93.22;99833.16;6175955;28;20054;-70
2020/12/11 07:12:40;;;;;;;36.80;17.58;;;;;;;1.37;92.80;99829.84;6175813;28;20070;-71
2020/12/11 07:15:40;;;;;;;37.10;17.73;;;;;;;1.56;92.09;99816.31;6173067;28;20050;-72
2020/12/11 07:18:42;;;;;;;36.30;17.38;;;;;;;1.40;92.58;99814.19;6167407;28;20508;-71
2020/12/11 07:21:46;;;;;;;39.20;17.75;;;;;;;1.37;93.42;99819.50;6154355;28;20457;-71
2020/12/11 07:24:47;;;;;;;37.42;17.80;;;;;;;1.44;93.17;99820.13;6151180;28;20047;-71
2020/12/11 07:28:02;;;;;;;35.60;16.85;;;;;;;1.55;92.53;99812.91;6151918;28;20047;-70
2020/12/11 07:31:03;;;;;;;36.33;17.10;;;;;;;1.48;93.17;99819.16;6150898;28;20059;-70
2020/12/11 07:34:11;;;;;;;38.90;17.42;;;;;;;1.50;92.60;99814.78;6150102;28;20139;-72
2020/12/11 07:37:12;;;;;;;36.95;17.25;;;;;;;1.57;92.62;99818.00;6151167;28;20051;-71
2020/12/11 07:40:13;;;;;;;31.40;16.13;;;;;;;1.56;92.24;99816.31;6151149;28;20051;-70
2020/12/11 07:43:15;;;;;;;34.03;16.05;;;;;;;1.53;92.08;99814.66;6151215;28;20047;-71
2020/12/11 07:46:22;;;;;;;34.20;17.17;;;;;;;1.54;92.00;99816.34;6151178;28;20062;-71
2020/12/11 07:49:33;;;;;;;35.35;17.50;;;;;;;1.69;91.54;99810.72;6151050;28;20142;-71
2020/12/11 07:52:34;;;;;;;28.83;14.38;;;;;;;1.69;90.19;99796.91;6150747;28;20055;-71
2020/12/11 07:55:35;;;;;;;28.77;15.43;;;;;;;1.68;90.43;99787.44;6151421;28;20521;-70
2020/12/11 07:58:37;;;;;;;29.70;15.82;;;;;;;1.70;90.83;99783.06;6150027;28;20047;-71
2020/12/11 08:01:38;;;;;;;29.48;14.98;;;;;;;1.63;91.33;99782.41;6150983;28;20424;-71
2020/12/11 08:04:39;;;;;;;30.63;15.88;;;;;;;1.62;90.96;99785.06;6150764;28;20047;-71
2020/12/11 08:07:40;;;;;;;32.75;17.35;;;;;;;1.60;91.69;99769.56;6150956;28;20051;-71
2020/12/11 08:10:43;;;;;;;31.35;16.67;;;;;;;1.61;91.97;99776.44;6150579;28;20082;-71
2020/12/11 08:13:58;;;;;;;32.35;16.58;;;;;;;1.67;91.60;99775.38;6150460;28;20424;-70
2020/12/11 08:17:02;;;;;;;31.30;15.52;;;;;;;1.66;91.63;99763.34;6149461;28;20057;-70
2020/12/11 08:20:04;;;;;;;30.33;15.80;;;;;;;1.71;90.74;99775.22;6150063;28;20043;-71
2020/12/11 08:23:16;;;;;;;31.27;15.93;;;;;;;1.81;91.01;99770.59;6150189;28;20051;-71
2020/12/11 08:26:19;;;;;;;32.42;15.93;;;;;;;1.71;91.49;99777.81;6150509;28;20047;-71
2020/12/11 08:29:21;;;;;;;31.23;15.80;;;;;;;1.74;91.84;99782.91;6160533;28;20059;-71
2020/12/11 08:32:25;;;;;;;25.63;14.35;;;;;;;1.82;90.48;99774.91;6174275;28;20051;-69
2020/12/11 08:35:26;;;;;;;28.90;15.65;;;;;;;1.88;90.46;99773.84;6174184;28;20054;-69
2020/12/11 08:38:27;;;;;;;27.60;14.75;;;;;;;1.92;89.94;99765.91;6159095;28;20063;-70
2020/12/11 08:41:30;;;;;;;25.70;13.98;;;;;;;1.95;89.82;99759.75;6126189;29;20048;-71
2020/12/11 08:44:44;;;;;;;27.42;13.05;;;;;;;1.97;88.77;99751.06;6132216;29;20054;-71
2020/12/11 08:48:05;;;;;;;26.33;13.77;;;;;;;1.98;89.07;99752.75;6141771;29;20055;-71
2020/12/11 08:51:07;;;;;;;25.42;13.23;;;;;;;2.11;88.51;99749.75;6126142;29;20052;-70
2020/12/11 08:54:09;;;;;;;27.40;14.50;;;;;;;2.05;88.08;99748.22;6125970;29;20052;-70
2020/12/11 08:57:10;;;;;;;27.98;14.55;;;;;;;2.11;88.60;99745.41;6126055;29;20051;-71
2020/12/11 09:00:12;;;;;;;22.58;12.85;;;;;;;2.11;87.53;99757.50;6125833;29;20457;-70
2020/12/11 09:03:13;;;;;;;28.00;14.95;;;;;;;2.14;87.88;99747.91;6127264;29;20071;-71
2020/12/11 09:06:14;;;;;;;26.85;13.55;;;;;;;2.22;87.63;99751.03;6137063;29;20529;-72
2020/12/11 09:09:15;;;;;;;21.75;12.55;;;;;;;2.22;86.06;99738.09;6144943;28;20091;-70
2020/12/11 09:12:15;;;;;;;26.83;14.20;;;;;;;2.16;87.34;99730.53;6146344;28;20051;-70
2020/12/11 09:15:18;;;;;;;25.48;13.38;;;;;;;2.28;85.90;99737.88;6144377;28;20043;-69
2020/12/11 09:18:19;;;;;;;24.67;13.30;;;;;;;2.25;87.10;99744.91;6147261;28;20130;-67
2020/12/11 09:21:20;;;;;;;28.65;13.68;;;;;;;2.28;87.15;99745.66;6148927;28;20125;-67
2020/12/11 09:24:21;;;;;;;22.35;13.18;;;;;;;2.23;86.46;99734.63;6147384;28;20043;-67
2020/12/11 09:27:22;;;;;;;25.70;13.60;;;;;;;2.24;86.85;99738.88;6148238;28;20050;-67
2020/12/11 09:30:28;;;;;;;26.55;13.85;;;;;;;2.30;86.18;99730.03;6148966;28;20051;-67
2020/12/11 09:33:34;;;;;;;23.10;12.50;;;;;;;2.35;85.97;99735.06;6150867;28;20086;-67
2020/12/11 09:36:35;;;;;;;22.48;13.07;;;;;;;2.37;86.10;99725.50;6148626;28;20106;-67
2020/12/11 09:39:36;;;;;;;22.38;12.65;;;;;;;2.36;86.02;99731.56;6148980;28;20078;-67
2020/12/11 09:42:56;;;;;;;23.10;12.70;;;;;;;2.45;85.32;99716.53;6145776;28;20167;-66
2020/12/11 09:46:04;;;;;;;24.65;13.70;;;;;;;2.44;85.94;99706.22;6147014;28;20048;-64
2020/12/11 09:49:08;;;;;;;26.33;14.00;;;;;;;2.47;86.02;99704.34;6148512;28;20052;-66
2020/12/11 09:52:22;;;;;;;26.05;13.15;;;;;;;2.58;85.54;99713.47;6148368;28;20098;-66
2020/12/11 09:55:25;;;;;;;22.98;12.68;;;;;;;2.59;84.13;99712.56;6133202;29;20120;-65
2020/12/11 09:58:26;;;;;;;23.50;12.45;;;;;;;2.75;84.54;99705.91;6148931;28;20051;-65
2020/12/11 10:01:41;;;;;;;23.73;12.98;;;;;;;2.72;83.72;99700.81;6148513;29;20059;-66
2020/12/11 10:04:42;;;;;;;24.70;12.98;;;;;;;2.69;84.75;99704.41;6148823;28;20428;-66
2020/12/11 10:07:43;;;;;;;22.10;12.40;;;;;;;2.70;84.60;99705.25;6148442;28;20102;-65
2020/12/11 10:10:44;;;;;;;21.13;11.52;;;;;;;2.72;84.32;99701.66;6148653;28;20060;-65
2020/12/11 10:13:46;;;;;;;22.42;12.68;;;;;;;2.67;84.88;99692.38;6148368;28;20050;-65
2020/12/11 10:16:51;;;;;;;23.23;12.05;;;;;;;2.78;83.76;99685.06;6148560;28;20055;-65
2020/12/11 10:19:52;;;;;;;19.05;10.80;;;;;;;2.76;83.09;99685.09;6148382;28;20055;-66
2020/12/11 10:22:53;;;;;;;18.90;10.63;;;;;;;2.89;82.48;99688.06;6151729;28;20179;-66
2020/12/11 10:25:54;;;;;;;18.48;11.02;;;;;;;2.80;83.35;99691.00;6151541;28;20047;-66
2020/12/11 10:28:54;;;;;;;19.50;11.00;;;;;;;2.97;83.24;99687.78;6152934;28;20625;-66
2020/12/11 10:31:56;;;;;;;21.17;11.43;;;;;;;2.92;82.87;99672.38;6152390;28;20087;-66
2020/12/11 10:34:57;;;;;;;19.45;11.27;;;;;;;3.02;82.47;99671.09;6153130;28;20043;-66
2020/12/11 10:37:58;;;;;;;22.40;12.18;;;;;;;3.01;82.24;99668.59;6152868;28;20055;-66
2020/12/11 10:40:58;;;;;;;20.48;11.13;;;;;;;2.90;82.12;99666.38;6152514;28;20055;-65
2020/12/11 10:44:00;;;;;;;18.83;11.23;;;;;;;2.94;84.08;99678.34;6152625;28;20070;-65
2020/12/11 10:47:01;;;;;;;24.70;11.40;;;;;;;3.02;82.43;99675.44;6152494;28;20054;-65
2020/12/11 10:50:02;;;;;;;23.50;11.77;;;;;;;3.05;82.84;99664.97;6152436;29;20443;-65
2020/12/11 10:53:03;;;;;;;20.75;11.00;;;;;;;2.95;83.14;99666.22;6152234;28;20058;-65
2020/12/11 10:56:05;;;;;;;20.58;11.43;;;;;;;3.05;82.58;99655.41;6152652;29;20053;-65
2020/12/11 10:59:06;;;;;;;17.85;10.27;;;;;;;3.03;82.69;99657.22;6151872;28;20059;-65
2020/12/11 11:02:08;;;;;;;20.23;11.25;;;;;;;3.11;83.64;99654.31;6152611;28;20067;-64
2020/12/11 11:05:09;;;;;;;23.13;11.93;;;;;;;3.09;82.58;99650.09;6152402;28;20138;-64
2020/12/11 11:08:10;;;;;;;21.42;11.85;;;;;;;3.04;82.65;99653.75;6152044;28;20058;-65
2020/12/11 11:11:11;;;;;;;18.85;11.32;;;;;;;3.07;82.79;99638.94;6151732;28;20511;-66
2020/12/11 11:24:30;;;;;;;21.30;11.55;;;;;;;3.26;83.20;99622.53;6157629;28;20054;-65
2020/12/11 11:27:34;;;;;;;18.70;10.55;;;;;;;3.36;81.76;99617.84;6161748;28;20117;-66
2020/12/11 11:30:35;;;;;;;17.33;10.13;;;;;;;3.32;79.37;99613.66;6161218;28;20098;-65
2020/12/11 11:33:37;;;;;;;21.83;11.23;;;;;;;3.24;80.86;99606.19;6162059;28;20043;-65
2020/12/11 11:36:38;;;;;;;21.98;10.90;;;;;;;3.33;82.03;99601.53;6160658;28;20053;-65
2020/12/11 11:39:39;;;;;;;21.00;12.25;;;;;;;3.34;81.60;99598.00;6156077;28;20417;-66
2020/12/11 11:42:40;;;;;;;20.25;11.23;;;;;;;3.32;81.09;99595.50;6151486;28;20047;-63
2020/12/11 11:45:41;;;;;;;23.25;11.50;;;;;;;3.35;81.75;99590.16;6150704;28;20112;-66
2020/12/11 11:48:44;;;;;;;19.98;10.68;;;;;;;3.38;80.65;99579.66;6150205;28;20047;-65
2020/12/11 11:51:51;;;;;;;21.58;11.35;;;;;;;3.41;81.30;99576.09;6151328;28;20062;-66
2020/12/11 11:54:52;;;;;;;24.13;11.85;;;;;;;3.36;81.29;99578.88;6151513;28;20051;-66
2020/12/11 11:57:53;;;;;;;21.35;11.05;;;;;;;3.43;80.61;99575.09;6151125;29;20431;-65
2020/12/11 12:00:53;;;;;;;20.40;11.35;;;;;;;3.41;81.31;99571.72;6150967;28;20055;-66
2020/12/11 12:03:55;;;;;;;24.38;12.75;;;;;;;3.48;81.04;99560.16;6151054;28;20051;-66
2020/12/11 12:06:56;;;;;;;25.05;12.15;;;;;;;3.38;81.06;99555.44;6150974;28;20050;-66
2020/12/11 12:09:57;;;;;;;28.23;13.63;;;;;;;3.38;81.52;99550.25;6150450;28;20055;-66
2020/12/11 12:12:58;;;;;;;25.73;12.70;;;;;;;3.47;80.42;99548.09;6151137;28;20051;-65
2020/12/11 12:15:59;;;;;;;25.13;13.00;;;;;;;3.42;81.19;99554.41;6150832;28;20069;-66
2020/12/11 12:19:01;;;;;;;25.10;12.15;;;;;;;3.48;81.56;99547.16;6150293;28;20055;-67
2020/12/11 12:32:03;;;;;;;26.55;12.07;;;;;;;3.55;81.34;99527.81;6150499;28;20087;-66
2020/12/11 12:35:17;;;;;;;23.65;12.88;;;;;;;3.68;80.93;99522.06;6150395;28;20057;-66
2020/12/11 12:38:29;;;;;;;27.38;12.57;;;;;;;3.63;81.25;99518.81;6150164;28;20055;-66
2020/12/11 12:44:49;;;;;;;24.08;12.35;;;;;;;3.67;81.30;99515.19;6150005;28;20510;-66
2020/12/11 12:47:50;;;;;;;24.80;12.73;;;;;;;3.62;80.81;99514.56;6150056;28;20055;-66
2020/12/11 12:50:52;;;;;;;28.65;13.63;;;;;;;3.78;80.99;99505.16;6149781;28;20159;-66
2020/12/11 12:53:52;;;;;;;34.67;13.38;;;;;;;3.80;80.00;99495.53;6149883;28;20437;-66
2020/12/11 12:56:55;;;;;;;31.90;12.88;;;;;;;3.77;79.54;99491.34;6150189;28;20066;-66
2020/12/11 13:00:03;;;;;;;31.30;14.52;;;;;;;3.87;79.27;99488.31;6149482;28;20051;-66
2020/12/11 13:06:14;;;;;;;29.65;13.95;;;;;;;4.01;79.41;99485.91;6149462;28;20054;-66
2020/12/11 13:09:17;;;;;;;27.00;12.95;;;;;;;3.82;79.84;99488.53;6149601;28;20058;-66
2020/12/11 13:12:18;;;;;;;28.63;12.98;;;;;;;4.06;79.43;99484.78;6149869;28;20052;-66
2020/12/11 13:15:19;;;;;;;25.75;12.55;;;;;;;4.04;78.07;99483.16;6149635;28;20503;-66
2020/12/11 13:18:20;;;;;;;27.23;12.43;;;;;;;4.11;79.79;99478.53;6149565;28;20047;-65
2020/12/11 13:21:26;;;;;;;26.77;12.85;;;;;;;3.92;79.14;99469.00;6149122;28;20102;-67
2020/12/11 13:27:46;;;;;;;25.30;12.32;;;;;;;3.93;79.92;99464.63;6140321;29;20059;-67
2020/12/11 13:30:47;;;;;;;30.33;13.40;;;;;;;3.84;80.30;99462.47;6143642;28;20058;-67
2020/12/11 13:33:48;;;;;;;25.20;13.13;;;;;;;3.80;79.76;99465.19;6148860;28;20047;-67
2020/12/11 13:36:50;;;;;;;31.98;12.98;;;;;;;3.97;79.52;99453.19;6149305;28;20198;-67
2020/12/11 13:39:50;;;;;;;27.30;14.20;;;;;;;4.03;79.04;99461.53;6149095;28;20059;-67
2020/12/11 13:42:51;;;;;;;29.17;12.68;;;;;;;3.90;78.70;99454.38;6149492;28;20062;-67
2020/12/11 13:45:52;;;;;;;32.10;13.30;;;;;;;3.81;79.69;99458.25;6148805;28;20051;-67
2020/12/11 13:48:53;;;;;;;29.70;13.40;;;;;;;3.82;80.09;99454.75;6149060;28;20409;-67
2020/12/11 13:51:54;;;;;;;27.50;13.75;;;;;;;3.64;80.66;99471.19;6149295;28;20062;-67
2020/12/11 13:54:56;;;;;;;28.17;14.30;;;;;;;3.72;80.28;99469.91;6149447;28;20054;-67
2020/12/11 13:57:57;;;;;;;30.58;14.35;;;;;;;3.63;81.12;99462.53;6152649;28;20114;-67
2020/12/11 14:00:57;;;;;;;27.65;13.85;;;;;;;3.61;81.17;99458.31;6153503;28;20047;-67
2020/12/11 14:03:58;;;;;;;30.02;14.43;;;;;;;3.66;80.80;99462.38;6153479;28;20048;-67
2020/12/11 14:07:01;;;;;;;31.52;14.18;;;;;;;3.80;79.92;99469.56;6153552;28;20051;-67
2020/12/11 14:10:02;;;;;;;28.35;13.68;;;;;;;3.65;81.24;99467.66;6153583;28;20492;-67
2020/12/11 14:13:03;;;;;;;29.67;13.88;;;;;;;3.74;80.96;99468.09;6153642;28;20058;-67
2020/12/11 14:16:03;;;;;;;31.30;13.82;;;;;;;3.67;80.24;99465.81;6153675;28;20078;-67
2020/12/11 14:19:21;;;;;;;30.48;13.73;;;;;;;3.58;80.81;99461.88;6153175;28;20055;-67
2020/12/11 14:22:26;;;;;;;31.63;14.32;;;;;;;3.73;80.99;99468.16;6153508;28;20047;-67
2020/12/11 14:25:27;;;;;;;29.40;13.13;;;;;;;3.73;80.12;99461.22;6153393;28;20568;-68
2020/12/11 14:28:28;;;;;;;29.40;14.13;;;;;;;3.71;79.78;99462.19;6153336;28;20058;-67
2020/12/11 14:31:30;;;;;;;26.55;13.05;;;;;;;3.67;80.10;99464.06;6152724;28;20423;-67